Time;durP1;ratioP1;P1;durP2;ratioP2;P2;SDS_P1;SDS_P2;PMS_P1;PMS_P2;Temp;Humidity;BMP_temperature;BMP_pressure;BME280_temperature;BME280_humidity;BME280_pressure;Samples;Min_cycle;Max_cycle;Signal;HPM_P1;HPM_P2
2024/01/03 00:00:19;;;;;;;0.10;0.10;;;;;;;;;;4957825;28;20034;-95
2024/01/03 00:02:45;;;;;;;0.40;0.40;;;;;;;;;;4953566;28;20086;-92
2024/01/03 00:05:11;;;;;;;0.10;0.10;;;;;;;;;;4938605;29;20557;-92
2024/01/03 00:07:38;;;;;;;0.28;0.20;;;;;;;;;;4939132;29;20048;-95
2024/01/03 00:10:07;;;;;;;0.10;0.10;;;;;;;;;;4937921;29;20047;-93
2024/01/03 00:12:33;;;;;;;0.10;0.10;;;;;;;;;;4956695;28;20047;-93
2024/01/03 00:14:59;;;;;;;0.10;0.10;;;;;;;;;;4957354;28;20099;-93
2024/01/03 00:17:25;;;;;;;0.10;0.10;;;;;;;;;;4973336;28;20121;-93
2024/01/03 00:19:54;;;;;;;0.10;0.10;;;;;;;;;;4957361;28;20039;-93
2024/01/03 00:22:21;;;;;;;0.10;0.10;;;;;;;;;;4954052;28;20147;-94
2024/01/03 00:24:48;;;;;;;0.10;0.10;;;;;;;;;;4938222;29;20059;-91
2024/01/03 00:27:14;;;;;;;0.10;0.10;;;;;;;;;;4938425;29;20043;-94
2024/01/03 00:29:46;;;;;;;0.10;0.10;;;;;;;;;;4938078;29;20527;-94
2024/01/03 00:32:12;;;;;;;0.10;0.10;;;;;;;;;;4938846;28;20130;-94
2024/01/03 00:34:41;;;;;;;0.10;0.10;;;;;;;;;;4954189;28;20399;-95
2024/01/03 00:37:24;;;;;;;0.10;0.10;;;;;;;;;;4953669;28;20046;-94
2024/01/03 00:39:50;;;;;;;0.10;0.10;;;;;;;;;;4953790;28;20043;-94
2024/01/03 00:42:17;;;;;;;0.10;0.10;;;;;;;;;;4954182;28;20070;-93
2024/01/03 00:44:43;;;;;;;0.20;0.20;;;;;;;;;;4937900;29;20051;-94
2024/01/03 00:47:09;;;;;;;0.10;0.10;;;;;;;;;;4937825;29;20055;-94
2024/01/03 00:49:36;;;;;;;0.20;0.20;;;;;;;;;;4939364;29;20043;-95
2024/01/03 00:52:02;;;;;;;0.10;0.10;;;;;;;;;;4938201;29;20415;-92
2024/01/03 00:54:29;;;;;;;0.10;0.10;;;;;;;;;;4939056;29;20050;-94
2024/01/03 00:56:55;;;;;;;0.10;0.10;;;;;;;;;;4953750;29;20543;-93
2024/01/03 00:59:21;;;;;;;0.10;0.10;;;;;;;;;;4952174;28;20521;-94
2024/01/03 01:01:47;;;;;;;0.10;0.10;;;;;;;;;;4960566;28;20035;-93
2024/01/03 01:04:13;;;;;;;0.10;0.10;;;;;;;;;;4959676;28;20039;-94
2024/01/03 01:06:41;;;;;;;0.10;0.10;;;;;;;;;;4960261;28;20130;-92
2024/01/03 01:09:08;;;;;;;0.10;0.10;;;;;;;;;;4959624;28;20070;-92
2024/01/03 01:11:35;;;;;;;0.10;0.10;;;;;;;;;;4976232;28;20051;-92
2024/01/03 01:14:01;;;;;;;0.10;0.10;;;;;;;;;;4960133;28;20042;-92
2024/01/03 01:16:27;;;;;;;0.10;0.10;;;;;;;;;;4976314;28;20046;-93
2024/01/03 01:18:53;;;;;;;0.10;0.10;;;;;;;;;;4971955;28;20569;-93
2024/01/03 01:21:19;;;;;;;0.20;0.20;;;;;;;;;;4940822;29;20050;-94
2024/01/03 01:23:45;;;;;;;0.10;0.10;;;;;;;;;;4941153;29;20039;-95
2024/01/03 01:26:11;;;;;;;0.10;0.10;;;;;;;;;;4941148;29;20071;-94
2024/01/03 01:28:37;;;;;;;0.10;0.10;;;;;;;;;;4937547;29;20042;-94
2024/01/03 01:31:03;;;;;;;0.10;0.10;;;;;;;;;;4940499;28;20051;-94
2024/01/03 01:33:29;;;;;;;0.10;0.10;;;;;;;;;;4940922;29;20053;-94
2024/01/03 01:35:55;;;;;;;0.10;0.10;;;;;;;;;;4940867;28;20050;-95
2024/01/03 01:38:23;;;;;;;1.65;0.57;;;;;;;;;;4940921;28;20406;-93
2024/01/03 01:40:55;;;;;;;0.17;0.13;;;;;;;;;;4957303;28;20048;-95
2024/01/03 01:43:21;;;;;;;0.10;0.10;;;;;;;;;;4956399;29;20063;-96
2024/01/03 01:45:50;;;;;;;0.10;0.10;;;;;;;;;;4959474;28;20593;-94
2024/01/03 01:48:22;;;;;;;0.10;0.10;;;;;;;;;;4942377;29;20043;-95
2024/01/03 01:50:48;;;;;;;0.10;0.10;;;;;;;;;;4941699;29;20507;-96
2024/01/03 01:53:17;;;;;;;0.10;0.10;;;;;;;;;;4943052;29;20089;-96
2024/01/03 01:55:52;;;;;;;0.10;0.10;;;;;;;;;;4942190;28;20105;-95
2024/01/03 01:58:18;;;;;;;2.72;0.30;;;;;;;;;;4941283;29;20407;-94
2024/01/03 02:00:44;;;;;;;0.10;0.10;;;;;;;;;;4940214;29;20039;-93
2024/01/03 02:03:10;;;;;;;0.10;0.10;;;;;;;;;;4940196;29;20047;-94
2024/01/03 02:05:37;;;;;;;0.10;0.10;;;;;;;;;;4939853;29;20498;-94
2024/01/03 02:08:04;;;;;;;0.10;0.10;;;;;;;;;;4945168;28;20043;-94
2024/01/03 02:10:30;;;;;;;0.40;0.22;;;;;;;;;;4939472;29;20086;-94
2024/01/03 02:13:06;;;;;;;0.10;0.10;;;;;;;;;;4939831;29;20051;-94
2024/01/03 02:15:32;;;;;;;1.13;0.93;;;;;;;;;;4941430;29;20054;-96
2024/01/03 02:17:58;;;;;;;0.22;0.20;;;;;;;;;;4953408;28;20043;-95
2024/01/03 02:23:28;;;;;;;0.10;0.10;;;;;;;;;;4944016;29;20043;-96
2024/01/03 02:25:54;;;;;;;0.10;0.10;;;;;;;;;;4944045;29;20071;-95
2024/01/03 02:28:34;;;;;;;0.10;0.10;;;;;;;;;;4943947;28;20050;-94
2024/01/03 02:31:00;;;;;;;0.10;0.10;;;;;;;;;;4960926;28;20075;-95
2024/01/03 02:33:26;;;;;;;0.10;0.10;;;;;;;;;;4959212;28;20052;-96
2024/01/03 02:35:52;;;;;;;0.10;0.10;;;;;;;;;;4958537;28;20517;-96
2024/01/03 02:38:24;;;;;;;0.10;0.10;;;;;;;;;;4942583;29;20047;-95
2024/01/03 02:41:01;;;;;;;0.35;0.35;;;;;;;;;;4940504;29;20046;-94
2024/01/03 02:43:34;;;;;;;0.10;0.10;;;;;;;;;;4945110;29;20178;-96
2024/01/03 02:46:03;;;;;;;0.20;0.20;;;;;;;;;;4966472;29;20058;-94
2024/01/03 02:48:39;;;;;;;0.52;0.52;;;;;;;;;;4968733;28;20074;-95
2024/01/03 02:51:42;;;;;;;0.10;0.10;;;;;;;;;;4965131;28;20043;-94
2024/01/03 02:54:11;;;;;;;0.10;0.10;;;;;;;;;;4929896;29;20167;-95
2024/01/03 02:56:43;;;;;;;0.63;0.20;;;;;;;;;;4911698;28;20107;-95
2024/01/03 02:59:09;;;;;;;0.10;0.10;;;;;;;;;;4960886;28;20047;-95
2024/01/03 03:01:38;;;;;;;0.10;0.10;;;;;;;;;;4977678;28;20122;-96
2024/01/03 03:04:10;;;;;;;0.65;0.20;;;;;;;;;;4960573;28;20042;-94
2024/01/03 03:06:37;;;;;;;0.10;0.10;;;;;;;;;;4957237;28;20466;-95
2024/01/03 03:09:03;;;;;;;0.10;0.10;;;;;;;;;;4939649;29;20083;-96
2024/01/03 03:11:29;;;;;;;0.10;0.10;;;;;;;;;;4941661;29;20043;-96
2024/01/03 03:13:55;;;;;;;0.32;0.32;;;;;;;;;;4946098;28;20038;-95
2024/01/03 03:16:22;;;;;;;0.10;0.10;;;;;;;;;;4957788;28;20074;-94
2024/01/03 03:18:48;;;;;;;0.10;0.10;;;;;;;;;;4938958;29;20495;-94
2024/01/03 03:21:14;;;;;;;0.10;0.10;;;;;;;;;;4937693;29;20101;-94
2024/01/03 03:23:42;;;;;;;0.10;0.10;;;;;;;;;;4938391;28;20390;-94
2024/01/03 03:26:08;;;;;;;0.10;0.10;;;;;;;;;;4922750;29;20036;-95
2024/01/03 03:28:34;;;;;;;0.10;0.10;;;;;;;;;;4938500;29;20127;-95
2024/01/03 03:31:00;;;;;;;0.10;0.10;;;;;;;;;;4938166;29;20058;-94
2024/01/03 03:33:26;;;;;;;0.10;0.10;;;;;;;;;;4937911;28;20055;-95
2024/01/03 03:35:52;;;;;;;0.10;0.10;;;;;;;;;;4938138;29;20153;-94
2024/01/03 03:38:19;;;;;;;0.10;0.10;;;;;;;;;;4922399;29;20047;-93
2024/01/03 03:40:45;;;;;;;0.10;0.10;;;;;;;;;;4938205;29;20129;-94
2024/01/03 03:43:11;;;;;;;0.10;0.10;;;;;;;;;;4938706;29;20095;-94
2024/01/03 03:45:37;;;;;;;0.10;0.10;;;;;;;;;;4939723;28;20042;-93
2024/01/03 03:48:04;;;;;;;0.10;0.10;;;;;;;;;;4958703;28;20403;-94
2024/01/03 03:50:30;;;;;;;0.10;0.10;;;;;;;;;;4950256;29;20051;-94
2024/01/03 03:52:57;;;;;;;0.10;0.10;;;;;;;;;;4931803;29;20129;-94
2024/01/03 03:55:23;;;;;;;0.10;0.10;;;;;;;;;;4958651;28;20050;-95
2024/01/03 03:57:49;;;;;;;0.10;0.10;;;;;;;;;;4957525;28;20042;-94
2024/01/03 04:00:19;;;;;;;0.10;0.10;;;;;;;;;;4959165;28;20141;-93
2024/01/03 04:02:49;;;;;;;0.10;0.10;;;;;;;;;;4941925;28;20097;-95
2024/01/03 04:05:15;;;;;;;0.10;0.10;;;;;;;;;;4944484;28;20054;-94
2024/01/03 04:07:41;;;;;;;0.10;0.10;;;;;;;;;;4938446;28;20168;-94
2024/01/03 04:10:07;;;;;;;0.10;0.10;;;;;;;;;;4949915;28;20580;-95
2024/01/03 04:12:37;;;;;;;0.10;0.10;;;;;;;;;;4954336;28;20130;-94
2024/01/03 04:15:04;;;;;;;0.10;0.10;;;;;;;;;;4957361;28;20486;-96
2024/01/03 04:17:30;;;;;;;0.10;0.10;;;;;;;;;;4958115;28;20114;-94
2024/01/03 04:19:58;;;;;;;0.10;0.10;;;;;;;;;;4956987;28;20053;-93
2024/01/03 04:22:24;;;;;;;0.10;0.10;;;;;;;;;;4953215;29;20039;-96
2024/01/03 04:24:51;;;;;;;0.20;0.20;;;;;;;;;;4937827;29;20054;-93
2024/01/03 04:27:17;;;;;;;0.10;0.10;;;;;;;;;;4952519;28;20034;-94
2024/01/03 04:29:43;;;;;;;0.10;0.10;;;;;;;;;;4936115;29;20126;-93
2024/01/03 04:32:09;;;;;;;0.10;0.10;;;;;;;;;;4941846;28;20055;-94
2024/01/03 04:34:39;;;;;;;0.10;0.10;;;;;;;;;;4958960;28;20051;-94
2024/01/03 04:37:05;;;;;;;0.10;0.10;;;;;;;;;;4957302;28;20036;-94
2024/01/03 04:39:31;;;;;;;0.10;0.10;;;;;;;;;;4941455;29;20042;-93
2024/01/03 04:41:57;;;;;;;0.20;0.20;;;;;;;;;;4940615;29;20043;-93
2024/01/03 04:44:23;;;;;;;0.10;0.10;;;;;;;;;;4959763;28;20513;-93
2024/01/03 04:46:49;;;;;;;0.20;0.20;;;;;;;;;;4948642;29;20043;-93
2024/01/03 04:49:15;;;;;;;0.10;0.10;;;;;;;;;;4949115;28;20523;-92
2024/01/03 04:51:41;;;;;;;0.10;0.10;;;;;;;;;;4959155;28;20132;-93
2024/01/03 04:54:07;;;;;;;0.10;0.10;;;;;;;;;;4956731;29;20125;-92
2024/01/03 04:56:35;;;;;;;0.10;0.10;;;;;;;;;;4943775;28;20038;-92
2024/01/03 04:59:03;;;;;;;0.10;0.10;;;;;;;;;;4944131;28;20054;-94
2024/01/03 05:01:29;;;;;;;0.10;0.10;;;;;;;;;;4975255;28;20053;-93
2024/01/03 05:03:55;;;;;;;0.10;0.10;;;;;;;;;;4940325;29;20094;-92
2024/01/03 05:06:21;;;;;;;0.10;0.10;;;;;;;;;;4973021;28;20043;-91
2024/01/03 05:08:48;;;;;;;0.10;0.10;;;;;;;;;;4957146;28;20114;-93
2024/01/03 05:11:15;;;;;;;0.20;0.20;;;;;;;;;;4939688;29;20491;-94
2024/01/03 05:13:41;;;;;;;0.28;0.28;;;;;;;;;;4959498;28;20070;-92
2024/01/03 05:16:07;;;;;;;0.10;0.10;;;;;;;;;;4956367;29;20077;-94
2024/01/03 05:18:33;;;;;;;0.10;0.10;;;;;;;;;;4961639;28;20075;-93
2024/01/03 05:20:59;;;;;;;0.10;0.10;;;;;;;;;;4952031;28;20562;-94
2024/01/03 05:23:25;;;;;;;0.10;0.10;;;;;;;;;;4958503;28;20035;-94
2024/01/03 05:25:51;;;;;;;0.10;0.10;;;;;;;;;;4959727;28;20438;-94
2024/01/03 05:28:18;;;;;;;0.10;0.10;;;;;;;;;;4955773;28;20094;-94
2024/01/03 05:30:44;;;;;;;0.10;0.10;;;;;;;;;;4967659;28;20097;-94
2024/01/03 05:33:10;;;;;;;0.10;0.10;;;;;;;;;;4928829;29;20487;-94
2024/01/03 05:35:36;;;;;;;1.10;0.43;;;;;;;;;;4986624;28;20546;-93
2024/01/03 05:38:02;;;;;;;0.20;0.20;;;;;;;;;;4941366;29;20039;-96
2024/01/03 05:40:28;;;;;;;0.10;0.10;;;;;;;;;;4951349;28;20051;-96
2024/01/03 05:42:54;;;;;;;0.75;0.75;;;;;;;;;;4943697;28;20221;-94
2024/01/03 05:45:20;;;;;;;0.10;0.10;;;;;;;;;;4955067;28;20079;-94
2024/01/03 05:48:06;;;;;;;0.10;0.10;;;;;;;;;;4973828;28;20422;-96
2024/01/03 05:50:33;;;;;;;3.10;0.38;;;;;;;;;;4944336;29;20043;-96
2024/01/03 05:53:03;;;;;;;0.10;0.10;;;;;;;;;;4952409;29;20522;-94
2024/01/03 05:55:29;;;;;;;0.10;0.10;;;;;;;;;;4979711;28;20406;-94
2024/01/03 05:57:55;;;;;;;0.10;0.10;;;;;;;;;;4946116;28;20035;-94
2024/01/03 06:00:21;;;;;;;0.20;0.20;;;;;;;;;;4946257;28;20032;-95
2024/01/03 06:02:47;;;;;;;0.10;0.10;;;;;;;;;;4955712;28;20081;-94
2024/01/03 06:05:18;;;;;;;0.10;0.10;;;;;;;;;;4955431;29;20047;-95
2024/01/03 06:07:44;;;;;;;0.10;0.10;;;;;;;;;;4941512;29;20050;-94
2024/01/03 06:10:10;;;;;;;0.10;0.10;;;;;;;;;;4968394;28;20050;-95
2024/01/03 06:12:36;;;;;;;0.10;0.10;;;;;;;;;;4943616;28;20043;-95
2024/01/03 06:15:05;;;;;;;0.10;0.10;;;;;;;;;;4943262;28;20553;-93
2024/01/03 06:17:31;;;;;;;0.10;0.10;;;;;;;;;;4939688;29;20094;-94
2024/01/03 06:19:58;;;;;;;0.30;0.30;;;;;;;;;;4957491;28;20053;-96
2024/01/03 06:22:24;;;;;;;0.10;0.10;;;;;;;;;;4942079;28;20039;-94
2024/01/03 06:24:50;;;;;;;0.10;0.10;;;;;;;;;;4943643;28;20043;-95
2024/01/03 06:27:16;;;;;;;0.10;0.10;;;;;;;;;;4941911;28;20038;-94
2024/01/03 06:29:42;;;;;;;0.10;0.10;;;;;;;;;;4938524;29;20046;-94
2024/01/03 06:32:08;;;;;;;0.10;0.10;;;;;;;;;;4955376;28;20533;-93
2024/01/03 06:34:35;;;;;;;0.10;0.10;;;;;;;;;;4955587;29;20051;-95
2024/01/03 06:37:01;;;;;;;0.30;0.30;;;;;;;;;;4955235;29;20043;-95
2024/01/03 06:39:27;;;;;;;0.10;0.10;;;;;;;;;;4955338;29;20031;-94
2024/01/03 06:41:53;;;;;;;0.10;0.10;;;;;;;;;;4955400;29;20047;-94
2024/01/03 06:44:22;;;;;;;0.10;0.10;;;;;;;;;;4959957;28;20051;-96
2024/01/03 06:46:48;;;;;;;0.10;0.10;;;;;;;;;;4940005;29;20062;-96
2024/01/03 06:49:14;;;;;;;0.10;0.10;;;;;;;;;;4950016;29;20047;-93
2024/01/03 06:51:40;;;;;;;0.10;0.10;;;;;;;;;;4954836;28;20110;-91
2024/01/03 06:54:07;;;;;;;0.10;0.10;;;;;;;;;;4957298;28;20078;-95
2024/01/03 06:56:33;;;;;;;0.10;0.10;;;;;;;;;;4955678;28;20090;-96
2024/01/03 06:59:02;;;;;;;0.10;0.10;;;;;;;;;;4955831;28;20031;-96
2024/01/03 07:01:28;;;;;;;0.10;0.10;;;;;;;;;;4939410;29;20046;-96
2024/01/03 07:03:56;;;;;;;0.22;0.22;;;;;;;;;;4956202;29;20364;-93
2024/01/03 07:06:22;;;;;;;0.10;0.10;;;;;;;;;;4954266;28;20093;-95
2024/01/03 07:08:49;;;;;;;0.10;0.10;;;;;;;;;;4955134;28;20035;-95
2024/01/03 07:11:20;;;;;;;0.10;0.10;;;;;;;;;;4956540;29;20043;-95
2024/01/03 07:13:49;;;;;;;1.10;0.22;;;;;;;;;;4959605;28;20109;-96
2024/01/03 07:16:16;;;;;;;0.10;0.10;;;;;;;;;;4960905;28;20054;-94
2024/01/03 07:18:45;;;;;;;0.10;0.10;;;;;;;;;;4959594;29;20315;-96
2024/01/03 07:21:11;;;;;;;0.10;0.10;;;;;;;;;;4960104;29;20039;-94
2024/01/03 07:23:40;;;;;;;0.10;0.10;;;;;;;;;;4959456;29;20047;-94
2024/01/03 07:26:08;;;;;;;0.20;0.20;;;;;;;;;;4958124;28;20495;-94
2024/01/03 07:28:37;;;;;;;0.10;0.10;;;;;;;;;;4957532;29;20046;-96
2024/01/03 07:31:03;;;;;;;0.10;0.10;;;;;;;;;;4961175;28;20050;-94
2024/01/03 07:33:32;;;;;;;0.10;0.10;;;;;;;;;;4950368;28;20102;-94
2024/01/03 07:35:58;;;;;;;0.10;0.10;;;;;;;;;;4929227;29;20050;-95
2024/01/03 07:38:29;;;;;;;6.13;0.47;;;;;;;;;;4947405;29;20039;-96
2024/01/03 07:41:01;;;;;;;0.10;0.10;;;;;;;;;;4928045;29;20056;-96
2024/01/03 07:43:30;;;;;;;0.70;0.45;;;;;;;;;;4902712;29;20107;-94
2024/01/03 07:46:33;;;;;;;0.20;0.20;;;;;;;;;;4929317;29;20075;-95
2024/01/03 07:48:59;;;;;;;0.13;0.13;;;;;;;;;;4944585;29;20047;-94
2024/01/03 07:51:37;;;;;;;0.10;0.10;;;;;;;;;;4907090;29;20055;-96
2024/01/03 08:03:17;;;;;;;0.20;0.20;;;;;;;;;;5031981;28;20270;-93
2024/01/03 08:05:43;;;;;;;0.10;0.10;;;;;;;;;;4988792;28;20094;-96
2024/01/03 08:08:09;;;;;;;0.10;0.10;;;;;;;;;;5021140;28;20068;-96
2024/01/03 08:10:35;;;;;;;0.10;0.10;;;;;;;;;;5013033;28;20098;-91
2024/01/03 08:13:06;;;;;;;0.10;0.10;;;;;;;;;;5021085;28;20362;-94
2024/01/03 08:15:33;;;;;;;0.10;0.10;;;;;;;;;;4986383;28;20045;-92
2024/01/03 08:18:00;;;;;;;0.10;0.10;;;;;;;;;;5001984;28;20065;-93
2024/01/03 08:20:26;;;;;;;0.10;0.10;;;;;;;;;;4988292;28;20055;-91
2024/01/03 08:22:52;;;;;;;0.10;0.10;;;;;;;;;;4986257;28;20489;-93
2024/01/03 08:25:18;;;;;;;0.10;0.10;;;;;;;;;;4986584;28;20041;-92
2024/01/03 08:27:45;;;;;;;0.10;0.10;;;;;;;;;;4995073;28;20037;-93
2024/01/03 08:30:11;;;;;;;0.10;0.10;;;;;;;;;;5002496;28;20045;-91
2024/01/03 08:32:40;;;;;;;0.10;0.10;;;;;;;;;;4986065;28;20041;-90
2024/01/03 08:35:06;;;;;;;0.10;0.10;;;;;;;;;;4986785;28;20042;-93
2024/01/03 08:37:32;;;;;;;0.10;0.10;;;;;;;;;;5018680;28;20038;-93
2024/01/03 08:40:01;;;;;;;0.10;0.10;;;;;;;;;;4987201;28;20127;-93
2024/01/03 08:42:45;;;;;;;0.10;0.10;;;;;;;;;;5006430;28;20088;-92
2024/01/03 08:45:11;;;;;;;0.10;0.10;;;;;;;;;;4986468;28;20044;-91
2024/01/03 08:47:37;;;;;;;0.10;0.10;;;;;;;;;;4985869;28;20052;-92
2024/01/03 08:50:03;;;;;;;0.10;0.10;;;;;;;;;;5002543;28;20135;-92
2024/01/03 08:52:29;;;;;;;0.30;0.30;;;;;;;;;;5002589;28;20041;-91
2024/01/03 08:54:55;;;;;;;0.10;0.10;;;;;;;;;;5001975;28;20501;-92
2024/01/03 08:57:22;;;;;;;0.10;0.10;;;;;;;;;;5002926;28;20037;-89
2024/01/03 08:59:48;;;;;;;0.10;0.10;;;;;;;;;;5001613;28;20053;-91
2024/01/03 09:02:14;;;;;;;0.10;0.10;;;;;;;;;;4982152;28;20460;-91
2024/01/03 09:04:41;;;;;;;0.10;0.10;;;;;;;;;;4998615;28;20034;-93
2024/01/03 09:07:07;;;;;;;0.10;0.10;;;;;;;;;;4998844;28;20072;-92
2024/01/03 09:09:33;;;;;;;0.10;0.10;;;;;;;;;;4998831;28;20042;-92
2024/01/03 09:11:59;;;;;;;0.30;0.30;;;;;;;;;;4982659;28;20046;-91
2024/01/03 09:14:25;;;;;;;0.10;0.10;;;;;;;;;;4998419;28;20096;-90
2024/01/03 09:16:51;;;;;;;0.10;0.10;;;;;;;;;;5000315;28;20037;-96
2024/01/03 09:19:17;;;;;;;0.10;0.10;;;;;;;;;;4982630;28;20049;-93
2024/01/03 09:21:45;;;;;;;0.10;0.10;;;;;;;;;;4982176;28;20807;-92
2024/01/03 09:24:11;;;;;;;0.10;0.10;;;;;;;;;;4998412;28;20049;-92
2024/01/03 09:26:37;;;;;;;1.27;1.08;;;;;;;;;;4998464;28;20041;-90
2024/01/03 09:29:05;;;;;;;0.10;0.10;;;;;;;;;;4998221;28;20482;-90
2024/01/03 09:31:33;;;;;;;0.10;0.10;;;;;;;;;;4998259;28;20564;-90
2024/01/03 09:33:59;;;;;;;0.10;0.10;;;;;;;;;;5014159;28;20045;-90
2024/01/03 09:36:25;;;;;;;0.10;0.10;;;;;;;;;;4998213;28;20120;-92
2024/01/03 09:38:51;;;;;;;0.20;0.20;;;;;;;;;;4997965;28;20080;-92
2024/01/03 09:41:18;;;;;;;1.65;1.10;;;;;;;;;;4998144;28;20137;-90
2024/01/03 09:43:44;;;;;;;0.10;0.10;;;;;;;;;;4998347;28;20042;-92
2024/01/03 09:46:13;;;;;;;0.10;0.10;;;;;;;;;;4998220;28;20053;-91
2024/01/03 09:48:44;;;;;;;0.10;0.10;;;;;;;;;;4997680;28;20081;-90
2024/01/03 09:51:10;;;;;;;0.10;0.10;;;;;;;;;;4997273;28;20053;-90
2024/01/03 09:53:36;;;;;;;0.10;0.10;;;;;;;;;;4997115;28;20044;-89
2024/01/03 09:56:02;;;;;;;0.10;0.10;;;;;;;;;;4996827;28;20074;-89
2024/01/03 09:58:28;;;;;;;0.10;0.10;;;;;;;;;;4997174;28;20038;-90
2024/01/03 10:00:54;;;;;;;0.20;0.20;;;;;;;;;;4997433;28;20049;-91
2024/01/03 10:03:20;;;;;;;0.10;0.10;;;;;;;;;;5017402;28;20041;-91
2024/01/03 10:05:46;;;;;;;0.10;0.10;;;;;;;;;;5001194;28;20052;-90
2024/01/03 10:08:16;;;;;;;0.10;0.10;;;;;;;;;;5000333;28;20045;-90
2024/01/03 10:10:45;;;;;;;0.10;0.10;;;;;;;;;;5000397;28;20049;-90
2024/01/03 10:13:20;;;;;;;0.10;0.10;;;;;;;;;;4999449;28;20041;-90
2024/01/03 10:15:47;;;;;;;0.10;0.10;;;;;;;;;;4999909;28;20038;-90
2024/01/03 10:18:15;;;;;;;0.10;0.10;;;;;;;;;;5000692;28;20393;-90
2024/01/03 10:20:42;;;;;;;0.10;0.10;;;;;;;;;;5016114;28;20485;-89
2024/01/03 10:23:12;;;;;;;0.10;0.10;;;;;;;;;;5014778;28;20129;-90
2024/01/03 10:25:38;;;;;;;0.10;0.10;;;;;;;;;;5016216;28;20053;-89
2024/01/03 10:28:05;;;;;;;0.10;0.10;;;;;;;;;;5016149;28;20041;-90
2024/01/03 10:30:31;;;;;;;0.10;0.10;;;;;;;;;;5000793;28;20397;-89
2024/01/03 10:33:01;;;;;;;0.10;0.10;;;;;;;;;;4995987;28;20046;-90
2024/01/03 10:35:36;;;;;;;0.10;0.10;;;;;;;;;;5003990;28;20552;-90
2024/01/03 10:38:03;;;;;;;0.10;0.10;;;;;;;;;;5016165;28;20052;-91
2024/01/03 10:40:30;;;;;;;0.10;0.10;;;;;;;;;;5015486;28;20164;-90
2024/01/03 10:42:56;;;;;;;0.10;0.10;;;;;;;;;;4999660;28;20033;-90
2024/01/03 10:45:23;;;;;;;0.32;0.20;;;;;;;;;;4983064;28;20048;-90
2024/01/03 10:47:49;;;;;;;0.20;0.20;;;;;;;;;;4983496;28;20420;-89
2024/01/03 10:50:15;;;;;;;0.10;0.10;;;;;;;;;;5015485;28;20128;-90
2024/01/03 10:52:42;;;;;;;0.20;0.20;;;;;;;;;;5032208;28;20041;-91
2024/01/03 10:55:19;;;;;;;0.10;0.10;;;;;;;;;;5015486;28;20052;-88
2024/01/03 10:57:52;;;;;;;0.98;0.85;;;;;;;;;;4999569;28;20080;-90
2024/01/03 11:00:21;;;;;;;0.10;0.10;;;;;;;;;;5015328;28;20092;-94
2024/01/03 11:02:51;;;;;;;0.10;0.10;;;;;;;;;;5000199;28;20057;-92
2024/01/03 11:05:22;;;;;;;0.10;0.10;;;;;;;;;;4983636;28;20515;-92
2024/01/03 11:07:54;;;;;;;0.10;0.10;;;;;;;;;;4993975;28;20556;-93
2024/01/03 11:10:39;;;;;;;0.10;0.10;;;;;;;;;;4978420;28;20089;-92
2024/01/03 11:13:24;;;;;;;0.20;0.20;;;;;;;;;;5015016;28;20044;-93
2024/01/03 11:15:50;;;;;;;0.10;0.10;;;;;;;;;;5015933;28;20041;-92
2024/01/03 11:18:36;;;;;;;0.17;0.17;;;;;;;;;;5016215;28;20037;-92
2024/01/03 11:21:30;;;;;;;0.25;0.20;;;;;;;;;;4989494;28;20041;-92
2024/01/03 11:23:56;;;;;;;0.10;0.10;;;;;;;;;;4998260;28;20038;-92
2024/01/03 11:26:41;;;;;;;0.10;0.10;;;;;;;;;;5014180;28;20120;-92
2024/01/03 11:29:07;;;;;;;0.10;0.10;;;;;;;;;;5015528;28;20487;-91
2024/01/03 11:31:52;;;;;;;0.10;0.10;;;;;;;;;;4998764;28;20041;-91
2024/01/03 11:34:37;;;;;;;0.10;0.10;;;;;;;;;;5000993;28;20084;-92
2024/01/03 11:37:07;;;;;;;0.10;0.10;;;;;;;;;;4999620;28;20042;-92
2024/01/03 11:39:36;;;;;;;0.10;0.10;;;;;;;;;;4994605;28;20474;-92
2024/01/03 11:42:03;;;;;;;0.10;0.10;;;;;;;;;;4963216;28;20065;-92
2024/01/03 11:44:29;;;;;;;0.10;0.10;;;;;;;;;;4964861;28;20081;-92
2024/01/03 11:46:59;;;;;;;0.10;0.10;;;;;;;;;;4965511;28;20064;-92
2024/01/03 11:49:25;;;;;;;0.10;0.10;;;;;;;;;;4996938;28;20038;-93
2024/01/03 11:51:51;;;;;;;0.10;0.10;;;;;;;;;;4996827;28;20036;-94
2024/01/03 11:54:18;;;;;;;0.10;0.10;;;;;;;;;;4998847;28;20037;-91
2024/01/03 11:56:59;;;;;;;0.30;0.30;;;;;;;;;;5001568;28;20119;-96
2024/01/03 11:59:25;;;;;;;0.10;0.10;;;;;;;;;;5000624;28;20050;-93
2024/01/03 12:01:56;;;;;;;0.28;0.28;;;;;;;;;;4996559;28;20054;-92
2024/01/03 12:04:22;;;;;;;0.10;0.10;;;;;;;;;;4996229;28;20588;-93
2024/01/03 12:06:49;;;;;;;0.10;0.10;;;;;;;;;;4995871;28;20128;-91
2024/01/03 12:09:15;;;;;;;0.10;0.10;;;;;;;;;;4996727;28;20549;-92
2024/01/03 12:11:42;;;;;;;0.10;0.10;;;;;;;;;;4996250;28;20567;-92
2024/01/03 12:14:08;;;;;;;0.10;0.10;;;;;;;;;;4995802;28;20045;-91
2024/01/03 12:16:47;;;;;;;0.10;0.10;;;;;;;;;;4996154;28;20034;-94
2024/01/03 12:22:01;;;;;;;1.45;1.17;;;;;;;;;;5020701;23;20064;-94
2024/01/03 12:24:38;;;;;;;0.10;0.10;;;;;;;;;;4894448;28;20103;-92
2024/01/03 12:27:05;;;;;;;0.10;0.10;;;;;;;;;;4908425;28;20391;-90
2024/01/03 12:29:33;;;;;;;0.10;0.10;;;;;;;;;;4946490;28;20396;-93
2024/01/03 12:32:08;;;;;;;0.10;0.10;;;;;;;;;;4878060;29;20044;-92
2024/01/03 12:34:34;;;;;;;0.10;0.10;;;;;;;;;;4878445;29;20095;-92
2024/01/03 12:37:00;;;;;;;0.10;0.10;;;;;;;;;;4943445;28;20431;-93
2024/01/03 12:39:26;;;;;;;0.10;0.10;;;;;;;;;;4958474;28;20041;-93
2024/01/03 12:41:52;;;;;;;0.10;0.10;;;;;;;;;;4877756;29;20053;-94
2024/01/03 12:44:18;;;;;;;0.10;0.10;;;;;;;;;;4878391;29;20052;-93
2024/01/03 12:46:44;;;;;;;0.30;0.30;;;;;;;;;;4878438;29;20041;-93
2024/01/03 12:49:10;;;;;;;0.10;0.10;;;;;;;;;;4876119;29;20036;-93
2024/01/03 12:51:36;;;;;;;0.30;0.30;;;;;;;;;;4859511;29;20049;-93
2024/01/03 12:54:02;;;;;;;0.35;0.35;;;;;;;;;;4867486;29;20040;-92
2024/01/03 12:56:29;;;;;;;0.10;0.10;;;;;;;;;;4881580;29;20087;-93
2024/01/03 12:58:55;;;;;;;0.10;0.10;;;;;;;;;;4881559;29;20041;-92
2024/01/03 13:01:22;;;;;;;0.10;0.10;;;;;;;;;;4881224;29;20041;-94
2024/01/03 13:03:48;;;;;;;0.10;0.10;;;;;;;;;;4881123;29;20032;-95
2024/01/03 13:06:14;;;;;;;0.10;0.10;;;;;;;;;;4945156;28;20067;-94
2024/01/03 13:08:40;;;;;;;0.10;0.10;;;;;;;;;;4946846;28;20448;-93
2024/01/03 13:11:06;;;;;;;0.10;0.10;;;;;;;;;;4946671;28;20045;-96
2024/01/03 13:13:32;;;;;;;0.10;0.10;;;;;;;;;;4871965;29;20084;-91
2024/01/03 13:15:58;;;;;;;0.10;0.10;;;;;;;;;;4861948;29;20049;-91
2024/01/03 13:18:24;;;;;;;0.10;0.10;;;;;;;;;;4877583;29;20500;-91
2024/01/03 13:20:51;;;;;;;0.10;0.10;;;;;;;;;;4868102;29;20091;-90
2024/01/03 13:23:18;;;;;;;0.10;0.10;;;;;;;;;;4945101;28;20048;-91
2024/01/03 13:25:44;;;;;;;0.10;0.10;;;;;;;;;;4945490;29;20088;-90
2024/01/03 13:28:10;;;;;;;0.10;0.10;;;;;;;;;;4945565;28;20055;-91
2024/01/03 13:30:36;;;;;;;0.10;0.10;;;;;;;;;;4977630;28;20054;-89
2024/01/03 13:33:02;;;;;;;0.20;0.20;;;;;;;;;;4942715;29;20418;-90
2024/01/03 13:35:28;;;;;;;0.10;0.10;;;;;;;;;;4876746;29;20048;-91
2024/01/03 13:37:54;;;;;;;0.10;0.10;;;;;;;;;;4874337;28;20436;-89
2024/01/03 13:40:20;;;;;;;0.20;0.20;;;;;;;;;;4944789;28;20036;-90
2024/01/03 13:42:46;;;;;;;0.10;0.10;;;;;;;;;;4977142;28;20519;-90
2024/01/03 13:45:12;;;;;;;0.10;0.10;;;;;;;;;;4883086;28;20036;-90
2024/01/03 13:47:38;;;;;;;0.20;0.20;;;;;;;;;;4944356;28;20091;-89
2024/01/03 13:50:05;;;;;;;0.10;0.10;;;;;;;;;;4960881;28;20040;-89
2024/01/03 13:52:34;;;;;;;0.10;0.10;;;;;;;;;;4959108;28;20048;-91
2024/01/03 13:55:01;;;;;;;0.10;0.10;;;;;;;;;;4942592;28;20049;-92
2024/01/03 13:57:27;;;;;;;0.20;0.20;;;;;;;;;;4877483;28;20045;-92
2024/01/03 13:59:54;;;;;;;0.10;0.10;;;;;;;;;;4884923;28;20048;-94
2024/01/03 14:02:24;;;;;;;0.10;0.10;;;;;;;;;;4864849;29;20148;-93
2024/01/03 14:04:50;;;;;;;0.10;0.10;;;;;;;;;;4945238;28;20519;-93
2024/01/03 14:07:17;;;;;;;3.40;0.30;;;;;;;;;;4990607;28;20135;-91
2024/01/03 14:09:43;;;;;;;0.10;0.10;;;;;;;;;;4879542;28;20044;-93
2024/01/03 14:12:10;;;;;;;0.10;0.10;;;;;;;;;;4896059;28;20135;-93
2024/01/03 14:14:36;;;;;;;0.10;0.10;;;;;;;;;;4895591;29;20040;-93
2024/01/03 14:17:04;;;;;;;0.10;0.10;;;;;;;;;;4896090;29;20044;-92
2024/01/03 14:19:30;;;;;;;0.10;0.10;;;;;;;;;;4897967;29;20488;-94
2024/01/03 14:21:59;;;;;;;0.10;0.10;;;;;;;;;;4991972;28;20066;-93
2024/01/03 14:24:25;;;;;;;0.10;0.10;;;;;;;;;;4961161;28;20044;-95
2024/01/03 14:26:51;;;;;;;0.10;0.10;;;;;;;;;;4978946;28;20087;-92
2024/01/03 14:29:18;;;;;;;0.10;0.10;;;;;;;;;;4908667;29;20048;-92
2024/01/03 14:31:44;;;;;;;0.10;0.10;;;;;;;;;;4963663;28;20062;-92
2024/01/03 14:34:10;;;;;;;0.10;0.10;;;;;;;;;;4964123;28;20388;-91
2024/01/03 14:36:37;;;;;;;0.10;0.10;;;;;;;;;;4979689;28;20051;-91
2024/01/03 14:39:07;;;;;;;0.10;0.10;;;;;;;;;;4897698;28;20087;-91
2024/01/03 14:41:35;;;;;;;0.10;0.10;;;;;;;;;;4943533;28;20504;-90
2024/01/03 14:44:04;;;;;;;0.15;0.15;;;;;;;;;;4909321;29;20123;-89
2024/01/03 14:46:33;;;;;;;0.55;0.52;;;;;;;;;;4878305;29;20127;-89
2024/01/03 14:49:00;;;;;;;0.10;0.10;;;;;;;;;;4894056;29;20511;-89
2024/01/03 14:51:26;;;;;;;0.10;0.10;;;;;;;;;;4878297;29;20049;-89
2024/01/03 14:53:52;;;;;;;0.10;0.10;;;;;;;;;;4974806;28;20546;-89
2024/01/03 14:56:18;;;;;;;0.10;0.10;;;;;;;;;;4909820;28;20189;-89
2024/01/03 14:58:45;;;;;;;0.10;0.10;;;;;;;;;;4878051;29;20631;-88
2024/01/03 15:01:12;;;;;;;0.10;0.10;;;;;;;;;;4909521;29;20040;-90